Matthew, Kentucky
Current Conditions -  °F | °C
As of 6:53 PM on Friday 31 Oct 2014 (Local Time) from KJKL Reporting Station
Light Snow Light Snow  
Wind Chill: 30°   Ceiling: 1200
Heat Index: 38°   Visibility: 7mi
Dew Point: 35°   Wind: 14mph
Humidity: 89%   Direction: 320°NW
Pressure: 29.91"   Gusts: 23mph
Location:  37.937°N, 83.2694°W
Report Text: KJKL 312253Z AUTO 32012G20KT 7SM -SN SCT008 BKN012 OVC020 03/02 A2991 RMK AO2 PK WND 32028/2208 RAE34SNB34 SLP133 P0004 T00330017
Loading
Personal Weather Stations






























Interactive Weather Map
Tropical Storm Tracking
New forecast layout! Learn more

10-Day Weather Forecast

Advertisements
Track Severe Weather on mobile